Miscellaneous Local Product
Issued by NWS

Home |  Current Version |  Previous Version |  Text Only |  Print | Product List |  Glossary On
Versions: 1 2 3 4 5 6 7 8 9 10 11 12 13 14 15 16 17 18 19 20 21 22 23 24 25 26 27 28 29 30 31 32 33 34 35 36 37 38 39 40 41 42 43 44 45 46 47 48 49 50
333
AXUS44 KLUB 211315
MISWTM

METAR KARS 211310Z 15010KT 21/21 A3026 RMK A01 SLP183 T02090207 RH99% DA4400
METAR KAD1 211310Z 18015KT 21/19 A3027 RMK A01 SLP156 T02130193 RH88% DA5600
METAR KAI1 211310Z 16009KT 21/21 A3027 RMK A01 SLP186 T02090209 RH100% DA4400
METAR KAL1 211310Z 00000KT 24/21 A3020 RMK A01 SLP207 T02440211 RH82% DA2500
METAR KAM3 211310Z 19011KT 22/19 A3023 RMK A01 SLP174 T02200194 RH85% DA4600
METAR KAM1 211310Z 18011KT 21/21 A3026 RMK A01 SLP176 T02070207 RH100% DA4800
METAR KAM2 211310Z 19011KT 22/22 A3023 RMK A01 SLP172 T02170218 RH100% DA4600
METAR KAMH 211310Z 16009KT 21/19 A3026 RMK A01 SLP174 T02100194 RH91% DA4800
METAR KANS 211310Z 15006KT 22/20 A3023 RMK A01 SLP178 T02190197 RH87% DA4400
METAR KAOS 211310Z 16009KT 22/20 A3025 RMK A01 SLP176 T02190197 RH87% DA4600
METAR KASR 211310Z 15006KT 24/22 A3020 RMK A01 SLP202 T02380217 RH88% DA2900
METAR KBE1 211310Z 11014KT 21/19 A3018 RMK A01 SLP165 T02140190 RH86% DA4300
METAR KBI1 211310Z 12006KT 22/22 A3021 RMK A01 SLP185 T02220222 RH100% DA3900
METAR KBO1 211310Z 18011KT 20/20 A3030 RMK A01 SLP163 T01960196 RH100% DA5600
METAR KBO2 211310Z 17011KT 22/20 A3023 RMK A01 SLP178 T02220199 RH87% DA4400
METAR KBY1 211310Z 20008KT 23/19 A3022 RMK A01 SLP173 T02310194 RH80% DA4600
METAR KBWS 211310Z 16011KT 21/20 A3025 RMK A01 SLP182 T02100196 RH92% DA4400
METAR KCA1 211310Z 17008KT 23/20 A3020 RMK A01 SLP184 T02280204 RH86% DA3600
METAR KCA3 211310Z 17008KT 21/19 A3026 RMK A01 SLP177 T02100195 RH91% DA4800
METAR KQU1 211310Z 19006KT 22/20 A3023 RMK A01 SLP192 T02200201 RH89% DA3800
METAR KCA2 211310Z 34012KT 27/19 A3007 RMK A01 SLP143 T02700189 RH61% DA3900
METAR KCXS 211310Z 14006KT 23/21 A3021 RMK A01 SLP202 T02300210 RH88% DA3000
METAR KCES 211310Z 16012KT 22/20 A3023 RMK A01 SLP188 T02210203 RH90% DA4000
METAR KCL1 211310Z 17009KT 20/20 A3026 RMK A01 SLP180 T02030203 RH100% DA4500
METAR KCL2 211310Z 18005KT 23/22 A3024 RMK A01 SLP207 T02320221 RH93% DA3100
METAR KCO2 211310Z 17008KT 24/21 A3022 RMK A01 SLP198 T02370215 RH87% DA3400
METAR KCO3 211310Z 13003KT 24/22 A3020 RMK A01 SLP204 T02430216 RH85% DA2800
METAR KCO4 211310Z 13007KT RA 22/21 A3012 RMK A01 SLP183 T02240215 P0014 RH95% DA2200
METAR KCO1 211310Z 12010KT 23/20 A3018 RMK A01 SLP176 T02260199 RH85% DA3800
METAR KCR2 211310Z 15012KT 24/20 A3019 RMK A01 SLP178 T02380201 RH80% DA3900
METAR KCR1 211310Z 14005KT 24/22 A3020 RMK A01 SLP208 T02430223 RH88% DA2600
METAR KDC1 211310Z 13009KT 22/20 A3019 RMK A01 SLP146 T02160202 RH92% DA5000
METAR KDVS 211310Z 16011KT 21/18 A3025 RMK A01 SLP171 T02150183 RH82% DA4900
METAR KDMS 211310Z 18011KT 21/19 A3027 RMK A01 SLP169 T02080192 RH90% DA5100
METAR KDO2 211310Z 11006KT 24/22 A3019 RMK A01 SLP199 T02380217 RH88% DA2700
METAR KDR1 211310Z 17013KT 19/19 A3027 RMK A01 SLP160 T01940187 RH96% DA5500
METAR KDO1 211310Z 14007KT 24/21 A3023 RMK A01 SLP200 T02380209 RH84% DA3500
METAR KDU1 211310Z 18012KT 21/19 A3024 RMK A01 SLP167 T02130192 RH88% DA4800
METAR KEA1 211310Z 15011KT 21/21 A3027 RMK A01 SLP173 T02110211 RH100% DA5000
METAR KEN1 211310Z 18014KT 22/19 A3025 RMK A01 SLP161 T02170187 RH83% DA5300
METAR KES1 211310Z 16007KT 25/22 A3020 RMK A01 SLP197 T02490216 RH82% DA3200
METAR KFL2 211310Z 16003KT 22/21 A3022 RMK A01 SLP193 T02220206 RH91% DA3500
METAR KFLS 211310Z 16011KT 22/20 A3026 RMK A01 SLP188 T02170202 RH91% DA4300
METAR KFVS 211310Z 17011KT 22/20 A3023 RMK A01 SLP192 T02230204 RH89% DA3900
METAR KCH1 211310Z 15008KT 23/21 A3021 RMK A01 SLP200 T02340209 RH86% DA3200
METAR KLA1 211310Z 14008KT 23/21 A3018 RMK A01 SLP187 T02340206 RH84% DA3300
METAR KFL1 211310Z 07010KT 13/11 A3038 RMK A01 SLP068 T01290114 RH90% DA8800
METAR KMC1 211310Z 10005KT 22/22 A3021 RMK A01 SLP196 T02210222 RH100% DA3200
METAR KFAS 211310Z 17011KT 20/19 A3026 RMK A01 SLP165 T02040190 RH92% DA5200
METAR KFR1 211310Z 19011KT 21/19 A3022 RMK A01 SLP177 T02140191 RH87% DA4300
METAR KGGS 211310Z 14006KT 23/20 A3021 RMK A01 SLP190 T02260203 RH87% DA3700
METAR KTI1 211310Z 13004KT 25/24 A3018 RMK A01 SLP203 T02450236 RH95% DA2300
METAR KGDS 211310Z 13005KT 23/21 A3019 RMK A01 SLP200 T02350214 RH88% DA2700
METAR KGO1 211310Z 16010KT 21/20 A3026 RMK A01 SLP191 T02050197 RH95% DA4200
METAR KGHS 211310Z 14006KT 22/21 A3023 RMK A01 SLP189 T02180205 RH92% DA4000
METAR KGU1 211310Z 10007KT 17/17 A3031 RMK A01 SLP130 T01740174 RH100% DA6700
METAR KPFS 211310Z 17008KT 23/21 A3020 RMK A01 SLP199 T02310213 RH90% DA3100
METAR KHA3 211310Z 16008KT 25/22 A3020 RMK A01 SLP203 T02480218 RH84% DA3000
METAR KHA2 211310Z 18009KT 20/20 A3027 RMK A01 SLP180 T02030197 RH96% DA4700
METAR KHRS 211310Z 17008KT 21/19 A3027 RMK A01 SLP177 T02080194 RH92% DA4800
METAR KHA1 211310Z 17005KT 24/21 A3019 RMK A01 SLP200 T02400210 RH83% DA2800
METAR KHE1 211310Z 14008KT 25/22 A3020 RMK A01 SLP206 T02490215 RH82% DA2700
METAR KHES 211310Z 17008KT 21/19 A3026 RMK A01 SLP169 T02090192 RH90% DA5100
METAR KHO1 211310Z 14010KT 21/18 A3025 RMK A01 SLP173 T02100184 RH85% DA4900
METAR KPD3 211310Z 13005KT 22/22 A3023 RMK A01 SLP193 T02180216 RH99% DA3700
METAR KJA1 211310Z 12015KT 21/20 A3023 RMK A01 SLP167 T02080195 RH92% DA4700
METAR KJTS 211310Z 14005KT 24/22 A3021 RMK A01 SLP201 T02360217 RH89% DA3200
METAR KJU1 211310Z 00000KT 23/22 A3019 RMK A01 SLP199 T02300224 RH96% DA2800
METAR KKE1 211310Z 10009KT 20/18 A3022 RMK A01 SLP152 T01990184 RH91% DA5200
METAR KKN1 211310Z 17008KT 25/21 A3019 RMK A01 SLP203 T02530212 RH78% DA2700
METAR KAHS 211310Z 14004KT 23/21 A3021 RMK A01 SLP195 T02340212 RH87% DA3500
METAR KMC5 211310Z 17011KT 21/21 A3026 RMK A01 SLP187 T02120211 RH99% DA4300
METAR KLES 211310Z 14009KT 22/20 A3024 RMK A01 SLP188 T02210202 RH89% DA4100
METAR KLE1 211310Z 14006KT 24/22 A3021 RMK A01 SLP195 T02370217 RH88% DA3400
METAR KLD1 211310Z 17014KT 22/20 A3025 RMK A01 SLP176 T02160197 RH89% DA4700
METAR KLI1 211310Z 19017KT 24/20 A3021 RMK A01 SLP184 T02420202 RH78% DA4000
METAR KLO1 211310Z 15013KT 23/20 A3022 RMK A01 SLP191 T02290197 RH82% DA3700
METAR KLB3 211310Z 15005KT -RA 21/20 A3025 RMK A01 SLP185 T02080201 P0001 RH96% DA4300
METAR KLC1 211310Z 14005KT 21/20 A3025 RMK A01 SLP184 T02130201 RH93% DA4400
METAR KLB2 211310Z 13007KT 21/20 A3025 RMK A01 SLP185 T02130203 RH94% DA4300
METAR KMA2 211310Z 09010KT 19/18 A3024 RMK A01 SLP134 T01910178 RH92% DA6000
METAR KMA1 211310Z 18008KT 23/21 A3023 RMK A01 SLP192 T02280206 RH88% DA3900
METAR KMC6 211310Z 16010KT 22/22 A3025 RMK A01 SLP190 T02200220 RH100% DA4200
METAR KMC4 211310Z 13011KT 23/21 A3019 RMK A01 SLP180 T02330205 RH84% DA3700
METAR KMCS 211310Z 16011KT 22/20 A3023 RMK A01 SLP185 T02210199 RH88% DA4000
METAR KMES 211310Z 16007KT 25/20 A3021 RMK A01 SLP198 T02450205 RH78% DA3300
METAR KMD1 211310Z 11004KT 23/23 A3020 RMK A01 SLP199 T02290228 RH99% DA3000
METAR KME1 211310Z 12004KT 23/23 A3021 RMK A01 SLP197 T02330225 RH95% DA3300
METAR KMI1 211310Z 17011KT 24/20 A3023 RMK A01 SLP187 T02370201 RH81% DA4000
METAR KMNS 211310Z 17011KT 21/19 A3026 RMK A01 SLP173 T02110195 RH90% DA5000
METAR KMUS 211310Z 17008KT 21/19 A3026 RMK A01 SLP171 T02100193 RH90% DA5000
METAR KNE1 211310Z 15008KT 21/20 A3025 RMK A01 SLP184 T02110202 RH94% DA4400
METAR KNH1 211310Z 18007KT 22/20 A3026 RMK A01 SLP186 T02170202 RH91% DA4400
METAR KNOR 211305Z 16008KT 23/21 A3020 RMK A01 SLP194 T02310212 RH89% DA3200
METAR KLBW 211310Z 15006KT 21/20 A3024 RMK A01 SLP181 T02150198 RH90% DA4400
METAR KASU 211310Z 10006KT 23/22 A3019 RMK A01 SLP196 T02310218 RH92% DA3100
METAR KOES 211310Z 16006KT 22/20 A3025 RMK A01 SLP188 T02200204 RH91% DA4200
METAR KOD1 211310Z 15008KT 26/22 A3020 RMK A01 SLP207 T02610216 RH76% DA2700
METAR KONS 211310Z 14009KT 21/20 A3025 RMK A01 SLP175 T02060200 RH96% DA4700
METAR KPAD 211310Z 17004KT 23/22 A3022 RMK A01 SLP206 T02270216 RH93% DA3100
METAR KPD2 211310Z 11006KT 22/21 A3023 RMK A01 SLP186 T02220206 RH90% DA4000
METAR KPD1 211310Z 16007KT 21/21 A3027 RMK A01 SLP183 T02080208 RH100% DA4600
METAR KPD4 211310Z 18015KT 22/20 A3021 RMK A01 SLP174 T02190198 RH88% DA4200
METAR KPMS 211310Z 16012KT 21/20 A3025 RMK A01 SLP183 T02150198 RH90% DA4400
METAR KPA1 211310Z 18012KT 21/19 A3026 RMK A01 SLP179 T02130194 RH89% DA4600
METAR KPA2 211310Z 19015KT 21/19 A3025 RMK A01 SLP176 T02070194 RH92% DA4700
METAR KPA3 211310Z 18013KT 21/20 A3025 RMK A01 SLP174 T02080196 RH92% DA4700
METAR KPG1 211310Z 03011KT 22/22 A3013 RMK A01 SLP154 T02190219 RH100% DA4100
METAR KPPS 211310Z 15015KT 21/19 A3025 RMK A01 SLP171 T02120190 RH87% DA4900
METAR KPVS 211310Z 16005KT 21/20 A3026 RMK A01 SLP182 T02090199 RH94% DA4500
METAR KPT1 211310Z 12003KT 22/21 A3022 RMK A01 SLP193 T02180208 RH94% DA3700
METAR KRLS 211310Z 14007KT 21/20 A3025 RMK A01 SLP189 T02120204 RH95% DA4200
METAR KREE 211310Z 16008KT 21/20 A3025 RMK A01 SLP181 T02130201 RH93% DA4500
METAR KRRS 211310Z 16007KT 22/21 A3023 RMK A01 SLP192 T02250209 RH90% DA3800
METAR KBR1 211310Z 18008KT 22/19 A3025 RMK A01 SLP158 T02180187 RH82% DA5300
METAR KRO1 211310Z 15007KT 23/22 A3022 RMK A01 SLP201 T02350219 RH91% DA3300
METAR KST1 211310Z 14013KT 22/20 A3022 RMK A01 SLP185 T02220196 RH85% DA3800
METAR KSGV 211310Z 15007KT 21/20 A3025 RMK A01 SLP180 T02140198 RH90% DA4500
METAR KSE2 211310Z 10006KT 22/22 A3021 RMK A01 SLP197 T02210217 RH98% DA3300
METAR KSM1 211310Z 15006KT 21/20 A3024 RMK A01 SLP182 T02140196 RH89% DA4500
METAR KSE1 211310Z 15008KT 25/21 A3018 RMK A01 SLP204 T02490211 RH79% DA2500
METAR KSH1 211310Z 11006KT 21/20 A3026 RMK A01 SLP183 T02120201 RH94% DA4500
METAR KSH2 211310Z 13003KT 24/22 A3018 RMK A01 SLP200 T02390220 RH89% DA2700
METAR KSB1 211310Z 11011KT 20/19 A3022 RMK A01 SLP125 T02050194 RH94% DA5900
METAR KSVS 211310Z 16007KT 21/20 A3025 RMK A01 SLP185 T02120199 RH92% DA4300
METAR KSLS 211310Z 13008KT 22/20 A3025 RMK A01 SLP187 T02160203 RH92% DA4200
METAR KSM2 211310Z 16006KT 21/20 A3026 RMK A01 SLP181 T02100203 RH96% DA4500
METAR KSYS 211310Z 15009KT 23/21 A3022 RMK A01 SLP193 T02320209 RH87% DA3600
METAR KWT1 211310Z 14006KT 23/20 A3023 RMK A01 SLP197 T02350201 RH81% DA3600
METAR KSP2 211310Z 16007KT 22/20 A3025 RMK A01 SLP186 T02170202 RH91% DA4300
METAR KLB1 211310Z 15007KT 21/20 A3025 RMK A01 SLP187 T02130202 RH93% DA4300
METAR KSP1 211310Z 00000KT 22/21 A3021 RMK A01 SLP196 T02200210 RH94% DA3300
METAR KST2 211310Z 18006KT 24/22 A3021 RMK A01 SLP207 T02410220 RH88% DA2700
METAR KSC1 211310Z 13008KT 23/21 A3022 RMK A01 SLP193 T02290207 RH87% DA3500
METAR KST3 211310Z 18008KT 22/20 A3024 RMK A01 SLP175 T02160196 RH88% DA4500
METAR KST4 211310Z 19011KT 21/19 A3023 RMK A01 SLP162 T02090189 RH88% DA5000
METAR KSDS 211310Z 16009KT 21/20 A3025 RMK A01 SLP173 T02080198 RH94% DA4800
METAR KSU1 211310Z 19008KT 21/20 A3024 RMK A01 SLP172 T02140196 RH89% DA4700
METAR KSW1 211310Z 16008KT 22/20 A3024 RMK A01 SLP197 T02240200 RH87% DA3600
METAR KTAS 211310Z 17008KT 22/21 A3024 RMK A01 SLP183 T02200206 RH92% DA4300
METAR KTA1 211310Z 14009KT 23/20 A3023 RMK A01 SLP186 T02250202 RH87% DA4100
METAR KTAT 211310Z 15011KT 20/19 A3026 RMK A01 SLP164 T02030191 RH92% DA5200
METAR KTE1 211310Z 20013KT 20/17 A3026 RMK A01 SLP139 T01970174 RH87% DA6000
METAR KTH1 211310Z 16004KT 24/21 A3020 RMK A01 SLP207 T02420215 RH85% DA2500
METAR KTR1 211310Z 15005KT 25/21 A3019 RMK A01 SLP205 T02490214 RH81% DA2800
METAR KTIS 211310Z 18008KT 21/20 A3026 RMK A01 SLP180 T02070198 RH94% DA4600
METAR KTUR 211310Z 16007KT 22/20 A3021 RMK A01 SLP190 T02230204 RH89% DA3600
METAR KUM1 211310Z 19012KT 21/21 A3027 RMK A01 SLP173 T02080208 RH100% DA4900
METAR KVA1 211305Z 08007KT 21/19 A3019 RMK A01 SLP139 T02130191 RH87% DA5300
METAR KVE1 211310Z 18011KT 21/19 A3027 RMK A01 SLP166 T02100187 RH87% DA5200
METAR KVP1 211310Z 18006KT 20/20 A3027 RMK A01 SLP186 T02040199 RH97% DA4400
METAR KWA1 211310Z 11007KT 24/22 A3020 RMK A01 SLP199 T02420222 RH88% DA3100
METAR KWE1 211310Z 16005KT 25/21 A3020 RMK A01 SLP206 T02460211 RH81% DA2700
METAR KWE2 211310Z 16009KT 22/20 A3025 RMK A01 SLP188 T02170204 RH92% DA4300
METAR KWE3 211310Z 16008KT 24/21 A3021 RMK A01 SLP199 T02360210 RH85% DA3200
METAR KWVS 211310Z 15007KT 22/21 A3023 RMK A01 SLP190 T02210207 RH92% DA3800
METAR KWI1 211310Z 14004KT 26/22 A3007 RMK A01 SLP171 T02580216 RH77% DA2200
METAR KWOS 211310Z 17007KT 21/20 A3025 RMK A01 SLP182 T02100205 RH97% DA4400

&&